createdAt,value
2022-08-17T00:01:45.527Z,21.90
2022-08-17T00:04:19.120Z,21.90
2022-08-17T00:06:49.118Z,21.80
2022-08-17T00:09:18.786Z,21.70
2022-08-17T00:12:35.091Z,21.70
2022-08-17T00:14:34.867Z,21.60
2022-08-17T00:17:03.636Z,21.70
2022-08-17T00:19:32.431Z,21.80
2022-08-17T00:22:32.715Z,21.70
2022-08-17T00:24:47.396Z,21.70
2022-08-17T00:27:14.076Z,21.80
2022-08-17T00:29:41.105Z,21.70
2022-08-17T00:33:14.381Z,21.70
2022-08-17T00:34:54.520Z,21.60
2022-08-17T00:37:21.186Z,21.60
2022-08-17T00:39:47.884Z,21.50
2022-08-17T00:42:18.892Z,21.50
2022-08-17T00:44:45.751Z,21.70
2022-08-17T00:47:12.504Z,21.70
2022-08-17T00:49:39.430Z,21.80
2022-08-17T00:52:15.218Z,21.80
2022-08-17T00:54:44.651Z,21.70
2022-08-17T00:57:21.276Z,21.80
2022-08-17T01:00:02.250Z,21.80
2022-08-17T01:02:34.985Z,21.90
2022-08-17T01:05:14.061Z,21.90
2022-08-17T01:07:42.772Z,21.90
2022-08-17T01:10:59.175Z,21.80
2022-08-17T01:13:02.423Z,21.90
2022-08-17T01:15:35.981Z,22.00
2022-08-17T01:18:04.478Z,22.10
2022-08-17T01:20:32.397Z,22.10
2022-08-17T01:23:16.431Z,22.00
2022-08-17T01:25:53.585Z,22.00
2022-08-17T01:28:36.385Z,22.10
2022-08-17T01:31:09.038Z,22.10
2022-08-17T01:33:36.530Z,22.10
2022-08-17T01:36:04.954Z,22.10
2022-08-17T01:38:31.922Z,22.10
2022-08-17T01:41:03.395Z,22.20
2022-08-17T01:43:32.649Z,22.10
2022-08-17T01:46:03.014Z,22.00
2022-08-17T01:48:38.214Z,22.10
2022-08-17T01:51:07.530Z,22.10
2022-08-17T01:53:42.416Z,22.10
2022-08-17T01:56:12.119Z,21.90
2022-08-17T01:58:40.165Z,21.80
2022-08-17T02:01:08.459Z,21.90
2022-08-17T02:03:36.724Z,21.80
2022-08-17T02:06:05.372Z,21.80
2022-08-17T02:08:39.025Z,21.70
2022-08-17T02:11:11.955Z,21.60
2022-08-17T02:13:39.145Z,21.50
2022-08-17T02:16:06.168Z,21.40
2022-08-17T02:18:33.106Z,21.50
2022-08-17T02:21:00.172Z,21.40
2022-08-17T02:23:30.281Z,21.40
2022-08-17T02:25:59.458Z,21.50
2022-08-17T02:28:28.282Z,21.60
2022-08-17T02:31:01.517Z,21.40
2022-08-17T02:33:43.022Z,21.30
2022-08-17T02:36:11.743Z,21.20
2022-08-17T02:38:39.743Z,21.00
2022-08-17T02:41:06.699Z,21.00
2022-08-17T02:43:33.730Z,21.20
2022-08-17T02:46:00.566Z,21.30
2022-08-17T02:48:30.955Z,21.40
2022-08-17T02:50:59.677Z,21.50
2022-08-17T02:53:26.689Z,21.50
2022-08-17T02:55:53.554Z,21.60
2022-08-17T02:58:34.417Z,21.50
2022-08-17T03:01:07.119Z,21.40
2022-08-17T03:03:34.217Z,21.20
2022-08-17T03:06:01.580Z,21.20
2022-08-17T03:08:28.625Z,20.90
2022-08-17T03:10:55.600Z,21.00
2022-08-17T03:13:22.583Z,20.90
2022-08-17T03:15:50.515Z,20.90
2022-08-17T03:18:25.786Z,20.90
2022-08-17T03:20:58.446Z,20.90
2022-08-17T03:23:27.264Z,21.00
2022-08-17T03:25:55.279Z,21.10
2022-08-17T03:28:23.446Z,21.20
2022-08-17T03:30:51.237Z,21.20
2022-08-17T03:33:18.942Z,21.20
2022-08-17T03:35:46.272Z,21.30
2022-08-17T03:38:15.823Z,21.30
2022-08-17T03:40:56.594Z,21.40
2022-08-17T03:43:25.804Z,21.40
2022-08-17T03:46:27.673Z,21.30
2022-08-17T03:49:16.217Z,21.40
2022-08-17T03:52:01.812Z,21.40
2022-08-17T03:54:47.314Z,21.30
2022-08-17T03:57:14.309Z,21.40
2022-08-17T03:59:41.574Z,21.30
2022-08-17T04:02:12.992Z,21.40
2022-08-17T04:04:39.948Z,21.30
2022-08-17T04:07:07.269Z,21.30
2022-08-17T04:09:34.515Z,21.30
2022-08-17T04:12:02.498Z,21.40
2022-08-17T04:14:36.345Z,21.40
2022-08-17T04:17:17.473Z,21.40
2022-08-17T04:19:45.199Z,21.30
2022-08-17T04:22:11.885Z,21.30
2022-08-17T04:24:58.881Z,21.30
2022-08-17T04:27:25.658Z,21.30
2022-08-17T04:29:55.474Z,21.30
2022-08-17T04:33:04.943Z,21.30
2022-08-17T04:35:09.860Z,21.30
2022-08-17T04:37:36.588Z,21.30
2022-08-17T04:40:22.727Z,21.30
2022-08-17T04:43:13.216Z,21.30
2022-08-17T04:45:55.469Z,21.30
2022-08-17T04:48:27.960Z,21.20
2022-08-17T04:51:04.836Z,21.30
2022-08-17T04:53:31.507Z,21.40
2022-08-17T04:55:59.034Z,21.30
2022-08-17T04:58:25.726Z,21.30
2022-08-17T05:00:52.942Z,21.30
2022-08-17T05:03:19.694Z,21.30
2022-08-17T05:05:49.456Z,21.30
2022-08-17T05:08:18.566Z,21.30
2022-08-17T05:10:45.803Z,21.30
2022-08-17T05:13:22.386Z,21.30
2022-08-17T05:15:52.707Z,21.30
2022-08-17T05:18:19.439Z,21.40
2022-08-17T05:20:46.684Z,21.40
2022-08-17T05:23:16.553Z,21.40
2022-08-17T05:25:48.806Z,21.40
2022-08-17T05:28:18.862Z,21.40
2022-08-17T05:30:50.816Z,21.40
2022-08-17T05:33:21.189Z,21.40
2022-08-17T05:35:49.995Z,21.30
2022-08-17T05:38:20.654Z,21.40
2022-08-17T05:40:48.201Z,21.30
2022-08-17T05:43:19.156Z,21.30
2022-08-17T05:46:16.760Z,21.30
2022-08-17T05:48:49.376Z,21.30
2022-08-17T05:51:39.646Z,21.30
2022-08-17T05:54:31.085Z,21.30
2022-08-17T05:57:31.649Z,21.30
2022-08-17T05:59:58.276Z,21.40
2022-08-17T06:02:47.971Z,21.30
2022-08-17T06:05:51.493Z,21.40
2022-08-17T06:08:25.835Z,21.40
2022-08-17T06:11:24.702Z,21.40
2022-08-17T06:14:18.724Z,21.40
2022-08-17T06:16:49.912Z,21.50
2022-08-17T06:19:33.546Z,21.50
2022-08-17T06:22:02.704Z,21.60
2022-08-17T06:24:35.974Z,21.70
2022-08-17T06:27:24.412Z,21.80
2022-08-17T06:30:00.914Z,21.90
2022-08-17T06:32:29.340Z,21.90
2022-08-17T06:34:58.316Z,22.00
2022-08-17T06:38:02.272Z,22.00
2022-08-17T06:40:55.919Z,22.00
2022-08-17T06:43:48.059Z,22.10
2022-08-17T06:46:36.723Z,22.20
2022-08-17T06:49:15.168Z,22.30
2022-08-17T06:51:48.667Z,22.40
2022-08-17T06:54:21.846Z,22.60
2022-08-17T06:57:01.398Z,22.60
2022-08-17T07:00:05.959Z,22.60
2022-08-17T07:03:10.541Z,22.60
2022-08-17T07:05:48.336Z,22.50
2022-08-17T07:08:26.399Z,22.50
2022-08-17T07:11:00.508Z,22.60
2022-08-17T07:13:38.061Z,22.60
2022-08-17T07:16:41.971Z,22.60
2022-08-17T07:19:10.789Z,22.70
2022-08-17T07:21:40.965Z,22.70
2022-08-17T07:24:26.204Z,22.70
2022-08-17T07:27:07.958Z,22.70
2022-08-17T07:29:49.405Z,22.70
2022-08-17T07:32:18.569Z,22.70
2022-08-17T07:35:23.177Z,22.70
2022-08-17T07:38:25.858Z,22.70
2022-08-17T07:41:05.124Z,22.70
2022-08-17T07:43:40.744Z,22.60
2022-08-17T07:46:30.012Z,22.60
2022-08-17T07:49:18.381Z,22.60
2022-08-17T07:51:47.818Z,22.50
2022-08-17T07:54:22.459Z,22.60
2022-08-17T07:57:13.237Z,22.60
2022-08-17T07:59:59.378Z,22.70
2022-08-17T08:02:40.939Z,22.60
2022-08-17T08:05:46.695Z,22.70
2022-08-17T08:08:43.090Z,22.70
2022-08-17T08:11:15.186Z,22.70
2022-08-17T08:13:45.650Z,22.80
2022-08-17T08:16:24.470Z,22.80
2022-08-17T08:18:57.167Z,22.70
2022-08-17T08:21:29.060Z,22.70
2022-08-17T08:24:09.694Z,22.70
2022-08-17T08:27:08.078Z,22.70
2022-08-17T08:29:59.092Z,22.80
2022-08-17T08:32:47.921Z,22.80
2022-08-17T08:35:42.065Z,22.80
2022-08-17T08:38:34.542Z,22.70
2022-08-17T08:41:16.368Z,22.70
2022-08-17T08:44:09.809Z,22.80
2022-08-17T08:47:14.367Z,22.70
2022-08-17T08:50:05.337Z,22.70
2022-08-17T08:52:44.083Z,22.70
2022-08-17T08:55:13.490Z,22.60
2022-08-17T08:57:51.674Z,22.50
2022-08-17T09:00:24.958Z,22.40
2022-08-17T09:03:20.019Z,22.00
2022-08-17T09:06:06.770Z,22.00
2022-08-17T09:09:15.714Z,22.00
2022-08-17T09:12:05.020Z,22.00
2022-08-17T09:14:45.114Z,22.10
2022-08-17T09:17:24.436Z,22.10
2022-08-17T09:20:05.187Z,22.20
2022-08-17T09:22:42.801Z,22.30
2022-08-17T09:25:17.929Z,22.30
2022-08-17T09:27:53.835Z,22.30
2022-08-17T09:30:23.725Z,22.20
2022-08-17T09:33:04.621Z,22.20
2022-08-17T09:35:39.677Z,22.00
2022-08-17T09:38:29.136Z,21.70
2022-08-17T09:41:19.916Z,21.40
2022-08-17T09:43:56.610Z,21.40
2022-08-17T09:46:43.559Z,21.30
2022-08-17T09:49:26.455Z,21.30
2022-08-17T09:52:08.629Z,21.40
2022-08-17T09:54:40.937Z,21.30
2022-08-17T09:57:30.765Z,21.30
2022-08-17T10:00:00.949Z,21.20
2022-08-17T10:02:41.314Z,21.30
2022-08-17T10:05:21.690Z,21.50
2022-08-17T10:08:01.902Z,21.60
2022-08-17T10:10:56.653Z,21.70
2022-08-17T10:14:02.086Z,21.90
2022-08-17T10:17:02.769Z,22.00
2022-08-17T10:19:35.692Z,22.00
2022-08-17T10:22:43.199Z,22.20
2022-08-17T10:25:53.649Z,22.30
2022-08-17T10:28:27.375Z,22.30
2022-08-17T10:31:30.747Z,22.50
2022-08-17T10:34:29.385Z,22.50
2022-08-17T10:37:21.646Z,22.60
2022-08-17T10:39:59.342Z,22.70
2022-08-17T10:42:33.282Z,22.70
2022-08-17T10:45:28.137Z,22.80
2022-08-17T10:48:21.940Z,22.90
2022-08-17T10:51:01.772Z,23.00
2022-08-17T10:53:43.531Z,23.20
2022-08-17T10:56:13.091Z,23.20
2022-08-17T10:59:00.295Z,23.20
2022-08-17T11:01:33.010Z,23.20
2022-08-17T11:04:25.185Z,23.10
2022-08-17T11:07:19.603Z,23.10
2022-08-17T11:10:05.089Z,23.10
2022-08-17T11:12:52.103Z,23.20
2022-08-17T11:15:47.383Z,23.20
2022-08-17T11:18:37.023Z,23.20
2022-08-17T11:21:15.863Z,23.30
2022-08-17T11:24:17.346Z,23.30
2022-08-17T11:27:00.790Z,23.40
2022-08-17T11:29:53.587Z,23.30
2022-08-17T11:32:33.666Z,23.20
2022-08-17T11:35:21.102Z,23.10
2022-08-17T11:38:02.936Z,22.90
2022-08-17T11:41:02.143Z,22.70
2022-08-17T11:43:43.353Z,22.70
2022-08-17T11:46:21.958Z,22.70
2022-08-17T11:49:38.047Z,22.70
2022-08-17T11:52:05.194Z,22.50
2022-08-17T11:54:37.915Z,22.50
2022-08-17T11:57:26.440Z,22.50
2022-08-17T11:59:59.201Z,22.50
2022-08-17T12:02:31.743Z,22.50
2022-08-17T12:05:05.193Z,22.50
2022-08-17T12:07:54.327Z,22.50
2022-08-17T12:10:32.286Z,22.50
2022-08-17T12:13:05.857Z,22.40
2022-08-17T12:15:42.333Z,22.40
2022-08-17T12:18:18.076Z,22.40
2022-08-17T12:20:56.534Z,22.40
2022-08-17T12:23:39.352Z,22.30
2022-08-17T12:26:20.632Z,22.20
2022-08-17T12:28:50.161Z,22.20
2022-08-17T12:31:34.627Z,22.20
2022-08-17T12:34:05.248Z,22.20
2022-08-17T12:36:33.489Z,22.30
2022-08-17T12:39:12.955Z,22.40
2022-08-17T12:41:44.900Z,22.40
2022-08-17T12:44:12.156Z,22.50
2022-08-17T12:46:53.176Z,22.40
2022-08-17T12:49:29.894Z,22.50
2022-08-17T12:52:19.695Z,22.70
2022-08-17T12:55:00.345Z,22.90
2022-08-17T12:57:31.207Z,22.90
2022-08-17T13:00:17.499Z,22.80
2022-08-17T13:02:46.976Z,22.80
2022-08-17T13:05:35.947Z,22.80
2022-08-17T13:08:17.228Z,22.80
2022-08-17T13:10:53.382Z,22.80
2022-08-17T13:13:23.454Z,22.90
2022-08-17T13:16:09.393Z,23.00
2022-08-17T13:18:48.959Z,23.00
2022-08-17T13:21:30.340Z,23.10
2022-08-17T13:24:03.501Z,23.10
2022-08-17T13:26:37.728Z,23.10
2022-08-17T13:29:16.595Z,23.20
2022-08-17T13:31:52.249Z,23.20
2022-08-17T13:34:26.656Z,23.10
2022-08-17T13:37:32.598Z,22.90
2022-08-17T13:40:08.168Z,22.60
2022-08-17T13:42:50.363Z,22.50
2022-08-17T13:45:35.984Z,22.40
2022-08-17T13:48:21.820Z,22.30
2022-08-17T13:50:54.661Z,22.30
2022-08-17T13:53:47.522Z,22.20
2022-08-17T13:56:37.385Z,22.10
2022-08-17T13:59:12.233Z,22.00
2022-08-17T14:01:43.929Z,22.00
2022-08-17T14:04:16.659Z,22.00
2022-08-17T14:06:54.762Z,22.10
2022-08-17T14:09:28.238Z,22.20
2022-08-17T14:11:56.834Z,22.20
2022-08-17T14:14:24.471Z,22.20
2022-08-17T14:16:52.591Z,22.30
2022-08-17T14:19:21.837Z,22.30
2022-08-17T14:21:49.142Z,22.40
2022-08-17T14:24:21.579Z,22.50
2022-08-17T14:26:49.258Z,22.50
2022-08-17T14:29:15.992Z,22.60
2022-08-17T14:31:42.806Z,22.60
2022-08-17T14:34:20.366Z,22.60
2022-08-17T14:36:48.675Z,22.70
2022-08-17T14:39:16.633Z,22.80
2022-08-17T14:41:43.682Z,22.80
2022-08-17T14:44:12.417Z,22.90
2022-08-17T14:46:44.129Z,23.00
2022-08-17T14:49:12.729Z,23.10
2022-08-17T14:51:43.922Z,23.10
2022-08-17T14:54:29.415Z,22.90
2022-08-17T14:57:22.797Z,22.80
2022-08-17T14:59:47.179Z,22.80
2022-08-17T15:02:14.986Z,23.00
2022-08-17T15:04:45.499Z,23.00
2022-08-17T15:07:12.503Z,23.20
2022-08-17T15:09:39.186Z,23.30
2022-08-17T15:12:06.659Z,23.20
2022-08-17T15:14:35.377Z,23.30
2022-08-17T15:17:03.642Z,23.30
2022-08-17T15:19:30.413Z,23.30
2022-08-17T15:21:57.325Z,23.40
2022-08-17T15:24:24.013Z,23.50
2022-08-17T15:26:51.447Z,23.70
2022-08-17T15:29:18.354Z,23.80
2022-08-17T15:31:45.032Z,23.80
2022-08-17T15:34:11.899Z,23.80
2022-08-17T15:36:38.920Z,23.70
2022-08-17T15:39:19.203Z,23.70
2022-08-17T15:41:47.258Z,23.70
2022-08-17T15:44:32.618Z,23.70
2022-08-17T15:47:01.934Z,23.70
2022-08-17T15:49:28.602Z,23.60
2022-08-17T15:51:55.522Z,23.50
2022-08-17T15:54:23.325Z,23.40
2022-08-17T15:56:50.557Z,23.40
2022-08-17T15:59:17.271Z,23.40
2022-08-17T16:03:14.515Z,23.40
2022-08-17T16:04:31.756Z,23.40
2022-08-17T16:06:59.660Z,23.40
2022-08-17T16:09:26.882Z,23.40
2022-08-17T16:11:55.734Z,23.40
2022-08-17T16:14:24.222Z,23.40
2022-08-17T16:16:51.618Z,23.50
2022-08-17T16:19:18.278Z,23.50
2022-08-17T16:21:44.966Z,23.50
2022-08-17T16:24:13.728Z,23.60
2022-08-17T16:26:42.224Z,23.60
2022-08-17T16:29:09.443Z,23.60
2022-08-17T16:31:37.658Z,23.70
2022-08-17T16:34:17.136Z,23.70
2022-08-17T16:36:55.128Z,23.80
2022-08-17T16:39:25.424Z,23.80
2022-08-17T16:41:52.183Z,23.80
2022-08-17T16:44:20.847Z,23.80
2022-08-17T16:46:49.040Z,23.80
2022-08-17T16:49:27.617Z,23.90
2022-08-17T16:52:04.280Z,23.80
2022-08-17T16:54:31.008Z,23.80
2022-08-17T16:56:57.692Z,23.70
2022-08-17T16:59:31.281Z,23.70
2022-08-17T17:02:11.283Z,23.70
2022-08-17T17:04:45.353Z,23.60
2022-08-17T17:07:49.576Z,23.60
2022-08-17T17:10:24.058Z,23.60
2022-08-17T17:13:02.835Z,23.60
2022-08-17T17:15:53.478Z,23.60
2022-08-17T17:18:26.378Z,23.70
2022-08-17T17:20:57.024Z,23.80
2022-08-17T17:23:36.186Z,23.90
2022-08-17T17:26:19.020Z,23.90
2022-08-17T17:29:00.758Z,23.90
2022-08-17T17:31:38.068Z,23.80
2022-08-17T17:34:07.613Z,23.70
2022-08-17T17:36:53.910Z,23.60
2022-08-17T17:39:20.567Z,23.50
2022-08-17T17:41:58.985Z,23.30
2022-08-17T17:44:30.385Z,23.30
2022-08-17T17:46:58.376Z,23.30
2022-08-17T17:49:30.149Z,23.20
2022-08-17T17:52:12.360Z,23.10
2022-08-17T17:55:01.994Z,23.10
2022-08-17T17:57:40.447Z,23.10
2022-08-17T18:00:14.001Z,23.00
2022-08-17T18:03:06.842Z,23.00
2022-08-17T18:05:46.605Z,23.10
2022-08-17T18:08:16.555Z,23.00
2022-08-17T18:10:54.738Z,23.10
2022-08-17T18:13:52.019Z,23.10
2022-08-17T18:16:19.199Z,23.20
2022-08-17T18:18:52.136Z,23.20
2022-08-17T18:21:24.246Z,23.20
2022-08-17T18:24:02.029Z,23.10
2022-08-17T18:26:45.074Z,23.10
2022-08-17T18:29:31.494Z,23.00
2022-08-17T18:32:23.320Z,22.90
2022-08-17T18:35:15.886Z,22.90
2022-08-17T18:37:48.745Z,22.90
2022-08-17T18:40:19.011Z,22.80
2022-08-17T18:42:56.641Z,22.80
2022-08-17T18:45:41.482Z,22.70
2022-08-17T18:48:26.896Z,22.70
2022-08-17T18:51:15.583Z,22.60
2022-08-17T18:53:42.251Z,22.60
2022-08-17T18:56:23.052Z,22.50
2022-08-17T18:59:00.766Z,22.40
2022-08-17T19:01:41.930Z,22.30
2022-08-17T19:04:40.214Z,22.20
2022-08-17T19:07:30.141Z,22.30
2022-08-17T19:10:06.818Z,22.40
2022-08-17T19:12:38.044Z,22.50
2022-08-17T19:15:07.764Z,22.60
2022-08-17T19:17:46.743Z,22.70
2022-08-17T19:20:41.603Z,22.70
2022-08-17T19:23:40.790Z,22.80
2022-08-17T19:26:53.337Z,22.90
2022-08-17T19:29:36.895Z,22.90
2022-08-17T19:32:06.387Z,22.90
2022-08-17T19:34:35.599Z,22.90
2022-08-17T19:37:06.820Z,22.90
2022-08-17T19:39:55.247Z,22.80
2022-08-17T19:42:37.151Z,22.80
2022-08-17T19:45:29.249Z,22.70
2022-08-17T19:48:12.331Z,22.50
2022-08-17T19:50:54.938Z,22.40
2022-08-17T19:54:04.379Z,22.30
2022-08-17T19:56:42.054Z,22.20
2022-08-17T19:59:35.772Z,22.30
2022-08-17T20:02:18.929Z,22.40
2022-08-17T20:04:49.147Z,22.50
2022-08-17T20:07:22.017Z,22.50
2022-08-17T20:10:08.143Z,22.40
2022-08-17T20:12:38.734Z,22.40
2022-08-17T20:15:08.731Z,22.40
2022-08-17T20:17:41.396Z,22.30
2022-08-17T20:20:29.864Z,22.30
2022-08-17T20:23:14.991Z,22.20
2022-08-17T20:25:57.317Z,22.10
2022-08-17T20:28:27.901Z,22.10
2022-08-17T20:30:55.126Z,22.00
2022-08-17T20:33:33.076Z,22.00
2022-08-17T20:36:14.326Z,22.00
2022-08-17T20:38:41.042Z,21.90
2022-08-17T20:41:12.622Z,21.90
2022-08-17T20:43:39.288Z,21.80
2022-08-17T20:46:51.411Z,21.80
2022-08-17T20:49:27.444Z,21.70
2022-08-17T20:52:11.088Z,21.70
2022-08-17T20:54:50.525Z,21.70
2022-08-17T20:57:32.463Z,21.70
2022-08-17T21:00:05.260Z,21.70
2022-08-17T21:02:32.799Z,21.70
2022-08-17T21:05:06.896Z,21.70
2022-08-17T21:07:43.721Z,21.70
2022-08-17T21:10:17.940Z,21.60
2022-08-17T21:13:08.212Z,21.60
2022-08-17T21:15:56.982Z,21.60
2022-08-17T21:18:52.493Z,21.60
2022-08-17T21:21:44.725Z,21.60
2022-08-17T21:24:31.240Z,21.50
2022-08-17T21:27:23.643Z,21.50
2022-08-17T21:30:02.350Z,21.50
2022-08-17T21:32:40.480Z,21.50
2022-08-17T21:35:22.655Z,21.40
2022-08-17T21:37:53.234Z,21.40
2022-08-17T21:40:28.978Z,21.40
2022-08-17T21:43:23.329Z,21.40
2022-08-17T21:46:04.279Z,21.40
2022-08-17T21:48:42.001Z,21.40
2022-08-17T21:51:18.868Z,21.40
2022-08-17T21:53:51.979Z,21.30
2022-08-17T21:56:26.116Z,21.30
2022-08-17T21:59:13.002Z,21.30
2022-08-17T22:01:42.759Z,21.30
2022-08-17T22:04:12.408Z,21.20
2022-08-17T22:06:43.075Z,21.20
2022-08-17T22:09:40.287Z,21.20
2022-08-17T22:12:19.312Z,21.20
2022-08-17T22:14:57.802Z,21.10
2022-08-17T22:17:30.415Z,21.00
2022-08-17T22:20:14.349Z,21.00
2022-08-17T22:23:08.710Z,21.00
2022-08-17T22:25:40.562Z,21.00
2022-08-17T22:28:10.405Z,20.90
2022-08-17T22:30:59.696Z,20.90
2022-08-17T22:33:41.751Z,20.90
2022-08-17T22:36:31.455Z,20.80
2022-08-17T22:39:20.620Z,20.90
2022-08-17T22:41:48.124Z,20.90
2022-08-17T22:44:25.829Z,20.80
2022-08-17T22:47:11.181Z,20.80
2022-08-17T22:50:02.307Z,20.80
2022-08-17T22:53:02.542Z,20.80
2022-08-17T22:55:52.122Z,20.80
2022-08-17T22:58:40.499Z,20.80
2022-08-17T23:01:36.361Z,20.80
2022-08-17T23:04:06.952Z,20.80
2022-08-17T23:06:35.891Z,20.70
2022-08-17T23:09:05.732Z,20.80
2022-08-17T23:11:48.593Z,20.70
2022-08-17T23:14:19.030Z,20.70
2022-08-17T23:16:46.604Z,20.70
2022-08-17T23:19:15.796Z,20.70
2022-08-17T23:21:44.829Z,20.70
2022-08-17T23:24:19.394Z,20.70
2022-08-17T23:26:46.236Z,20.70
2022-08-17T23:29:13.182Z,20.70
2022-08-17T23:31:40.534Z,20.60
2022-08-17T23:34:12.723Z,20.60
2022-08-17T23:36:39.475Z,20.60
2022-08-17T23:39:07.274Z,20.60
2022-08-17T23:41:38.527Z,20.70
2022-08-17T23:44:06.423Z,20.70
2022-08-17T23:46:34.476Z,20.70
2022-08-17T23:49:01.225Z,20.70
2022-08-17T23:51:35.713Z,20.70
2022-08-17T23:54:11.650Z,20.70
2022-08-17T23:56:47.341Z,20.60
2022-08-17T23:59:15.668Z,20.60
